Time,TemperatureF,DewpointF,PressureIn,WindDirection,WindDirectionDegrees,WindSpeedMPH,WindSpeedGustMPH,Humidity,HourlyPrecipIn,Conditions,Clouds,dailyrainin,SolarRadiationWatts/m^2,SoftwareType,DateUTC
2013-02-12 00:00:00,23.5,17.3,30.01,WNW,300,3.0,4.8,77,0.00,RA,,0.00,0.0,WeatherDisplay:10.37,2013-02-12 06:00:00,
2013-02-12 00:05:00,23.5,17.3,30.01,NW,319,6.2,7.2,77,0.00,RA,,0.00,0.0,WeatherDisplay:10.37,2013-02-12 06:05:00,
2013-02-12 00:10:00,23.3,17.2,30.01,WNW,286,6.0,9.2,77,0.00,RA,,0.00,0.0,WeatherDisplay:10.37,2013-02-12 06:10:00,
2013-02-12 00:15:00,23.3,17.5,30.02,WNW,282,5.5,8.4,78,0.00,OVC,,0.00,0.0,WeatherDisplay:10.37,2013-02-12 06:15:00,
2013-02-12 00:20:00,23.3,17.7,30.02,WNW,292,9.2,12.0,79,0.00,OVC,,0.00,0.0,WeatherDisplay:10.37,2013-02-12 06:20:00,
2013-02-12 00:25:00,23.2,17.7,30.02,West,278,1.2,4.6,79,0.00,OVC,,0.00,0.0,WeatherDisplay:10.37,2013-02-12 06:25:00,
2013-02-12 00:30:00,23.0,17.5,30.02,WSW,257,2.8,5.8,79,0.00,OVC,,0.00,0.0,WeatherDisplay:10.37,2013-02-12 06:30:00,
2013-02-12 00:35:00,22.7,17.2,30.02,WNW,286,6.4,8.4,79,0.00,OVC,,0.00,0.0,WeatherDisplay:10.37,2013-02-12 06:35:00,
2013-02-12 00:40:00,22.5,17.0,30.02,WNW,298,5.2,6.0,79,0.00,OVC,,0.00,0.0,WeatherDisplay:10.37,2013-02-12 06:40:00,
2013-02-12 00:45:00,22.4,17.2,30.03,West,261,9.1,10.8,80,0.00,OVC,,0.00,0.0,WeatherDisplay:10.37,2013-02-12 06:45:00,
2013-02-12 00:50:00,22.4,17.2,30.03,West,278,4.9,6.0,80,0.00,OVC,,0.00,0.0,WeatherDisplay:10.37,2013-02-12 06:50:00,
2013-02-12 00:55:00,22.4,17.2,30.03,WNW,287,7.4,10.8,80,0.00,OVC,,0.00,0.0,WeatherDisplay:10.37,2013-02-12 06:55:00,
2013-02-12 01:00:00,22.2,16.7,30.03,West,281,10.0,10.8,79,0.00,OVC,,0.00,0.0,WeatherDisplay:10.37,2013-02-12 07:00:00,
2013-02-12 01:05:00,22.1,16.6,30.03,WNW,283,7.2,8.4,79,0.00,OVC,,0.00,0.0,WeatherDisplay:10.37,2013-02-12 07:05:00,
2013-02-12 01:10:00,21.9,16.4,30.03,WNW,283,8.0,10.4,79,0.00,OVC,,0.00,0.0,WeatherDisplay:10.37,2013-02-12 07:10:00,
2013-02-12 01:15:00,21.9,16.4,30.04,WNW,286,5.8,7.2,79,0.00,OVC,,0.00,0.0,WeatherDisplay:10.37,2013-02-12 07:15:00,
2013-02-12 01:20:00,21.8,16.3,30.04,WNW,284,8.0,10.4,79,0.00,OVC,,0.00,0.0,WeatherDisplay:10.37,2013-02-12 07:20:00,
2013-02-12 01:25:00,21.8,16.0,30.04,WNW,302,10.1,12.0,78,0.00,OVC,,0.00,0.0,WeatherDisplay:10.37,2013-02-12 07:25:00,
2013-02-12 01:30:00,21.6,16.1,30.04,WNW,300,8.2,15.0,79,0.00,OVC,,0.00,0.0,WeatherDisplay:10.37,2013-02-12 07:30:00,
2013-02-12 01:35:00,21.6,16.1,30.04,NNW,336,6.1,7.2,79,0.00,OVC,,0.00,0.0,WeatherDisplay:10.37,2013-02-12 07:35:00,
2013-02-12 01:40:00,21.6,16.1,30.04,NW,319,4.1,8.4,79,0.00,OVC,,0.00,0.0,WeatherDisplay:10.37,2013-02-12 07:40:00,
2013-02-12 01:45:00,21.6,16.1,30.05,WNW,287,5.2,8.4,79,0.00,OVC,,0.00,0.0,WeatherDisplay:10.37,2013-02-12 07:45:00,
2013-02-12 01:50:00,21.4,15.9,30.05,WNW,302,3.0,6.0,79,0.00,OVC,,0.00,0.0,WeatherDisplay:10.37,2013-02-12 07:50:00,
2013-02-12 01:55:00,21.4,15.9,30.05,WNW,296,2.8,5.8,79,0.00,OVC,,0.00,0.0,WeatherDisplay:10.37,2013-02-12 07:55:00,
2013-02-12 02:00:00,21.4,15.9,30.05,NW,308,3.7,9.6,79,0.00,OVC,,0.00,0.0,WeatherDisplay:10.37,2013-02-12 08:00:00,
2013-02-12 02:05:00,21.4,15.9,30.05,NW,313,1.8,4.8,79,0.00,OVC,,0.00,0.0,WeatherDisplay:10.37,2013-02-12 08:05:00,
2013-02-12 02:10:00,21.4,15.9,30.05,West,276,4.5,7.2,79,0.00,OVC,,0.00,0.0,WeatherDisplay:10.37,2013-02-12 08:10:00,
2013-02-12 02:15:00,21.4,15.9,30.05,NW,317,3.2,6.0,79,0.00,OVC,,0.00,0.0,WeatherDisplay:10.37,2013-02-12 08:15:00,
2013-02-12 02:20:00,21.4,15.9,30.05,WNW,289,2.4,4.8,79,0.00,OVC,,0.00,0.0,WeatherDisplay:10.37,2013-02-12 08:20:00,
2013-02-12 02:25:00,21.4,15.9,30.05,WNW,298,4.8,8.4,79,0.00,OVC,,0.00,0.0,WeatherDisplay:10.37,2013-02-12 08:25:00,
2013-02-12 02:30:00,21.4,15.9,30.06,West,265,4.0,6.9,79,0.00,OVC,,0.00,0.0,WeatherDisplay:10.37,2013-02-12 08:30:00,
2013-02-12 02:35:00,21.3,15.8,30.06,WNW,287,2.0,4.8,79,0.00,OVC,,0.00,0.0,WeatherDisplay:10.37,2013-02-12 08:35:00,
2013-02-12 02:40:00,21.3,15.8,30.06,WNW,290,1.3,4.8,79,0.00,OVC,,0.00,0.0,WeatherDisplay:10.37,2013-02-12 08:40:00,
2013-02-12 02:45:00,21.3,16.1,30.06,WNW,298,0.0,0.0,80,0.00,OVC,,0.00,0.0,WeatherDisplay:10.37,2013-02-12 08:45:00,
2013-02-12 02:50:00,21.3,16.1,30.06,West,272,1.3,4.8,80,0.00,OVC,,0.00,0.0,WeatherDisplay:10.37,2013-02-12 08:50:00,
2013-02-12 02:55:00,21.1,15.6,30.06,West,279,3.6,6.0,79,0.00,OVC,,0.00,0.0,WeatherDisplay:10.37,2013-02-12 08:55:00,
2013-02-12 03:00:00,21.0,15.5,30.06,West,281,4.4,6.0,79,0.00,OVC,,0.00,0.0,WeatherDisplay:10.37,2013-02-12 09:00:00,
2013-02-12 03:05:00,21.0,15.5,30.06,WSW,250,0.0,0.0,79,0.00,OVC,,0.00,0.0,WeatherDisplay:10.37,2013-02-12 09:05:00,
2013-02-12 03:10:00,21.0,15.8,30.06,WSW,257,0.8,3.6,80,0.00,OVC,,0.00,0.0,WeatherDisplay:10.37,2013-02-12 09:10:00,
2013-02-12 03:15:00,21.1,15.9,30.06,West,278,5.0,7.2,80,0.00,OVC,,0.00,0.0,WeatherDisplay:10.37,2013-02-12 09:15:00,
2013-02-12 03:20:00,21.1,15.9,30.06,WSW,240,5.4,7.2,80,0.00,OVC,,0.00,0.0,WeatherDisplay:10.37,2013-02-12 09:20:00,
2013-02-12 03:25:00,21.1,16.2,30.06,West,261,2.5,4.8,81,0.00,OVC,,0.00,0.0,WeatherDisplay:10.37,2013-02-12 09:25:00,
2013-02-12 03:30:00,21.0,16.1,30.06,WSW,252,8.1,9.6,81,0.00,OVC,,0.00,0.0,WeatherDisplay:10.37,2013-02-12 09:30:00,
2013-02-12 03:35:00,21.0,16.1,30.06,WSW,245,4.6,6.9,81,0.00,OVC,,0.00,0.0,WeatherDisplay:10.37,2013-02-12 09:35:00,
2013-02-12 03:40:00,20.8,15.9,30.06,WSW,237,8.9,12.0,81,0.00,OVC,,0.00,0.0,WeatherDisplay:10.37,2013-02-12 09:40:00,
2013-02-12 03:45:00,20.8,15.9,30.06,WNW,287,3.2,4.8,81,0.00,OVC,,0.00,0.0,WeatherDisplay:10.37,2013-02-12 09:45:00,
2013-02-12 03:50:00,20.8,15.9,30.06,WSW,238,4.5,9.2,81,0.00,OVC,,0.00,0.0,WeatherDisplay:10.37,2013-02-12 09:50:00,
2013-02-12 03:55:00,20.6,15.4,30.06,SW,234,6.0,8.4,80,0.00,OVC,,0.00,0.0,WeatherDisplay:10.37,2013-02-12 09:55:00,
2013-02-12 04:00:00,20.6,15.4,30.06,West,276,5.3,7.2,80,0.00,OVC,,0.00,0.0,WeatherDisplay:10.37,2013-02-12 10:00:00,
2013-02-12 04:05:00,20.5,15.3,30.06,WSW,240,4.5,6.0,80,0.00,OVC,,0.00,0.0,WeatherDisplay:10.37,2013-02-12 10:05:00,
2013-02-12 04:10:00,20.5,15.3,30.06,West,274,5.5,8.1,80,0.00,OVC,,0.00,0.0,WeatherDisplay:10.37,2013-02-12 10:10:00,
2013-02-12 04:15:00,20.5,15.3,30.06,West,281,6.0,9.6,80,0.00,OVC,,0.00,0.0,WeatherDisplay:10.37,2013-02-12 10:15:00,
2013-02-12 04:20:00,20.3,15.1,30.06,WSW,242,5.9,8.1,80,0.00,OVC,,0.00,0.0,WeatherDisplay:10.37,2013-02-12 10:20:00,
2013-02-12 04:25:00,20.3,15.1,30.06,WSW,241,9.6,13.2,80,0.00,-SN,,0.00,0.0,WeatherDisplay:10.37,2013-02-12 10:25:00,
2013-02-12 04:30:00,20.2,14.7,30.07,WSW,245,6.9,13.2,79,0.00,-SN,,0.00,0.0,WeatherDisplay:10.37,2013-02-12 10:30:00,
2013-02-12 04:35:00,20.2,14.7,30.07,WNW,284,6.0,8.4,79,0.00,-SN,,0.00,0.0,WeatherDisplay:10.37,2013-02-12 10:35:00,
2013-02-12 04:40:00,20.2,14.7,30.07,WNW,292,3.3,4.8,79,0.00,-SN,,0.00,0.0,WeatherDisplay:10.37,2013-02-12 10:40:00,
2013-02-12 04:45:00,20.2,14.7,30.07,West,271,4.9,6.0,79,0.00,OVC,,0.00,0.0,WeatherDisplay:10.37,2013-02-12 10:45:00,
2013-02-12 04:50:00,20.2,14.4,30.07,WNW,296,5.3,6.0,78,0.00,OVC,,0.00,0.0,WeatherDisplay:10.37,2013-02-12 10:50:00,
2013-02-12 04:55:00,20.3,14.5,30.07,WNW,298,2.1,4.6,78,0.00,OVC,,0.00,0.0,WeatherDisplay:10.37,2013-02-12 10:55:00,
2013-02-12 05:00:00,20.3,14.5,30.07,WSW,254,1.9,5.8,78,0.00,OVC,,0.00,0.0,WeatherDisplay:10.37,2013-02-12 11:00:00,
2013-02-12 05:05:00,20.3,14.5,30.07,WSW,248,0.0,4.6,78,0.00,OVC,,0.00,0.0,WeatherDisplay:10.37,2013-02-12 11:05:00,
2013-02-12 05:10:00,20.3,14.5,30.07,West,269,3.3,6.0,78,0.00,OVC,,0.00,0.0,WeatherDisplay:10.37,2013-02-12 11:10:00,
2013-02-12 05:15:00,20.3,14.5,30.07,WNW,293,2.1,7.2,78,0.00,OVC,,0.00,0.0,WeatherDisplay:10.37,2013-02-12 11:15:00,
2013-02-12 05:20:00,20.5,14.7,30.07,West,260,0.0,3.5,78,0.00,OVC,,0.00,0.0,WeatherDisplay:10.37,2013-02-12 11:20:00,
2013-02-12 05:25:00,20.5,14.7,30.07,WNW,286,1.6,3.6,78,0.00,OVC,,0.00,0.0,WeatherDisplay:10.37,2013-02-12 11:25:00,
2013-02-12 05:30:00,20.5,14.7,30.07,WNW,285,2.7,8.1,78,0.00,OVC,,0.00,0.0,WeatherDisplay:10.37,2013-02-12 11:30:00,
2013-02-12 05:35:00,20.6,14.8,30.07,West,265,0.0,0.0,78,0.00,OVC,,0.00,0.0,WeatherDisplay:10.37,2013-02-12 11:35:00,
2013-02-12 05:40:00,20.6,14.8,30.07,WSW,240,0.7,4.8,78,0.00,OVC,,0.00,0.0,WeatherDisplay:10.37,2013-02-12 11:40:00,
2013-02-12 05:45:00,20.6,14.8,30.07,WNW,291,1.1,8.4,78,0.00,BKN,,0.00,0.0,WeatherDisplay:10.37,2013-02-12 11:45:00,
2013-02-12 05:50:00,20.6,14.5,30.07,SW,216,4.3,4.3,77,0.00,BKN,,0.00,0.0,WeatherDisplay:10.37,2013-02-12 11:50:00,
2013-02-12 05:55:00,20.6,14.5,30.07,WNW,296,6.0,6.0,77,0.00,BKN,,0.00,0.0,WeatherDisplay:10.37,2013-02-12 11:55:00,
2013-02-12 06:00:00,20.6,14.5,30.07,West,273,6.9,9.2,77,0.00,BKN,,0.00,0.0,WeatherDisplay:10.37,2013-02-12 12:00:00,
2013-02-12 06:05:00,20.8,14.7,30.07,WNW,286,9.8,13.2,77,0.00,BKN,,0.00,0.0,WeatherDisplay:10.37,2013-02-12 12:05:00,
2013-02-12 06:10:00,20.8,14.4,30.07,WNW,285,7.6,9.6,76,0.00,BKN,,0.00,0.0,WeatherDisplay:10.37,2013-02-12 12:10:00,
2013-02-12 06:15:00,20.8,14.7,30.06,WNW,288,6.6,8.1,77,0.00,BKN,,0.00,0.0,WeatherDisplay:10.37,2013-02-12 12:15:00,
2013-02-12 06:20:00,20.8,14.7,30.06,WNW,284,3.3,4.8,77,0.00,BKN,,0.00,0.0,WeatherDisplay:10.37,2013-02-12 12:20:00,
2013-02-12 06:25:00,20.8,14.7,30.06,West,279,1.4,4.8,77,0.00,BKN,,0.00,0.0,WeatherDisplay:10.37,2013-02-12 12:25:00,
2013-02-12 06:30:00,20.8,14.7,30.07,West,271,10.2,12.0,77,0.00,BKN,,0.00,0.0,WeatherDisplay:10.37,2013-02-12 12:30:00,
2013-02-12 06:35:00,20.8,14.1,30.07,WNW,284,8.8,10.4,75,0.00,BKN,,0.00,0.0,WeatherDisplay:10.37,2013-02-12 12:35:00,
2013-02-12 06:40:00,20.8,14.1,30.07,NW,322,7.2,10.8,75,0.00,OVC,,0.00,0.0,WeatherDisplay:10.37,2013-02-12 12:40:00,
2013-02-12 06:45:00,20.8,14.1,30.07,WNW,294,6.1,8.4,75,0.00,OVC,,0.00,0.0,WeatherDisplay:10.37,2013-02-12 12:45:00,
2013-02-12 06:50:00,20.8,14.1,30.07,West,279,4.7,8.1,75,0.00,OVC,,0.00,0.0,WeatherDisplay:10.37,2013-02-12 12:50:00,
2013-02-12 06:55:00,20.8,14.1,30.07,West,266,1.0,2.4,75,0.00,OVC,,0.00,0.0,WeatherDisplay:10.37,2013-02-12 12:55:00,
2013-02-12 07:00:00,20.8,14.1,30.07,WNW,288,2.8,4.8,75,0.00,OVC,,0.00,0.0,WeatherDisplay:10.37,2013-02-12 13:00:00,
2013-02-12 07:05:00,20.8,14.1,30.07,West,278,1.3,2.4,75,0.00,SCT,,0.00,0.0,WeatherDisplay:10.37,2013-02-12 13:05:00,
2013-02-12 07:10:00,20.8,14.1,30.07,West,271,8.3,10.8,75,0.00,SCT,,0.00,5.0,WeatherDisplay:10.37,2013-02-12 13:10:00,
2013-02-12 07:15:00,20.8,14.1,30.07,WNW,282,3.0,7.2,75,0.00,SCT,,0.00,9.0,WeatherDisplay:10.37,2013-02-12 13:15:00,
2013-02-12 07:20:00,20.8,14.1,30.07,West,279,1.8,4.8,75,0.00,SCT,,0.00,11.0,WeatherDisplay:10.37,2013-02-12 13:20:00,
2013-02-12 07:25:00,20.8,14.1,30.07,West,264,1.9,6.0,75,0.00,SCT,,0.00,14.0,WeatherDisplay:10.37,2013-02-12 13:25:00,
2013-02-12 07:30:00,20.8,14.1,30.07,WNW,294,0.0,2.3,75,0.00,SCT,,0.00,18.0,WeatherDisplay:10.37,2013-02-12 13:30:00,
2013-02-12 07:35:00,20.8,14.4,30.07,WSW,252,0.0,1.2,76,0.00,SCT,,0.00,23.0,WeatherDisplay:10.37,2013-02-12 13:35:00,
2013-02-12 07:40:00,20.8,14.1,30.07,West,277,5.0,7.2,75,0.00,BKN,,0.00,28.0,WeatherDisplay:10.37,2013-02-12 13:40:00,
2013-02-12 07:45:00,20.8,14.1,30.08,West,277,2.0,4.8,75,0.00,BKN,,0.00,30.0,WeatherDisplay:10.37,2013-02-12 13:45:00,
2013-02-12 07:50:00,21.0,14.3,30.08,WNW,284,4.1,7.2,75,0.00,BKN,,0.00,32.0,WeatherDisplay:10.37,2013-02-12 13:50:00,
2013-02-12 07:55:00,20.8,14.1,30.08,NW,316,4.9,11.5,75,0.00,BKN,,0.00,44.0,WeatherDisplay:10.37,2013-02-12 13:55:00,
2013-02-12 08:00:00,20.6,13.3,30.09,WNW,290,8.1,10.4,73,0.00,BKN,,0.00,60.0,WeatherDisplay:10.37,2013-02-12 14:00:00,
2013-02-12 08:05:00,20.6,13.3,30.09,West,266,2.3,4.8,73,0.00,BKN,,0.00,77.0,WeatherDisplay:10.37,2013-02-12 14:05:00,
2013-02-12 08:10:00,20.6,13.3,30.09,West,281,0.6,3.6,73,0.00,BKN,,0.00,77.0,WeatherDisplay:10.37,2013-02-12 14:10:00,
2013-02-12 08:15:00,20.8,13.5,30.09,NW,317,6.2,15.0,73,0.00,BKN,,0.00,95.0,WeatherDisplay:10.37,2013-02-12 14:15:00,
2013-02-12 08:20:00,20.8,13.2,30.09,WNW,298,2.8,4.8,72,0.00,BKN,,0.00,111.0,WeatherDisplay:10.37,2013-02-12 14:20:00,
2013-02-12 08:25:00,20.8,13.5,30.09,West,261,4.4,4.8,73,0.00,BKN,,0.00,132.0,WeatherDisplay:10.37,2013-02-12 14:25:00,
2013-02-12 08:30:00,21.0,13.7,30.09,WNW,295,2.2,6.0,73,0.00,BKN,,0.00,190.0,WeatherDisplay:10.37,2013-02-12 14:30:00,
2013-02-12 08:35:00,21.0,13.7,30.09,West,267,3.5,8.4,73,0.00,BKN,,0.00,225.0,WeatherDisplay:10.37,2013-02-12 14:35:00,
2013-02-12 08:40:00,21.1,13.8,30.09,West,266,3.3,6.0,73,0.00,BKN,,0.00,250.0,WeatherDisplay:10.37,2013-02-12 14:40:00,
2013-02-12 08:45:00,21.3,14.0,30.10,WSW,250,4.2,6.9,73,0.00,BKN,,0.00,230.0,WeatherDisplay:10.37,2013-02-12 14:45:00,
2013-02-12 08:50:00,21.4,14.1,30.10,WNW,288,3.8,6.0,73,0.00,BKN,,0.00,193.0,WeatherDisplay:10.37,2013-02-12 14:50:00,
2013-02-12 08:55:00,21.4,14.1,30.10,WSW,252,5.0,6.0,73,0.00,BKN,,0.00,167.0,WeatherDisplay:10.37,2013-02-12 14:55:00,
2013-02-12 09:00:00,21.3,14.0,30.10,WSW,250,5.9,8.1,73,0.00,BKN,,0.00,139.0,WeatherDisplay:10.37,2013-02-12 15:00:00,
2013-02-12 09:05:00,21.1,13.8,30.10,WSW,240,7.8,9.6,73,0.00,BKN,,0.00,149.0,WeatherDisplay:10.37,2013-02-12 15:05:00,
2013-02-12 09:10:00,21.1,14.1,30.10,WSW,244,6.9,8.4,74,0.00,BKN,,0.00,165.0,WeatherDisplay:10.37,2013-02-12 15:10:00,
2013-02-12 09:15:00,21.3,14.3,30.10,WSW,248,5.3,8.1,74,0.00,-SN,,0.00,204.0,WeatherDisplay:10.37,2013-02-12 15:15:00,
2013-02-12 09:20:00,21.3,14.3,30.10,West,281,4.9,6.0,74,0.00,-SN,,0.00,181.0,WeatherDisplay:10.37,2013-02-12 15:20:00,
2013-02-12 09:25:00,21.3,14.3,30.10,West,262,7.6,10.8,74,0.00,-SN,,0.00,153.0,WeatherDisplay:10.37,2013-02-12 15:25:00,
2013-02-12 09:30:00,21.1,14.1,30.10,WSW,252,4.5,7.2,74,0.00,-SN,,0.00,118.0,WeatherDisplay:10.37,2013-02-12 15:30:00,
2013-02-12 09:35:00,21.1,14.1,30.10,West,265,3.0,8.4,74,0.00,-SN,,0.00,109.0,WeatherDisplay:10.37,2013-02-12 15:35:00,
2013-02-12 09:40:00,21.1,14.1,30.10,WSW,245,7.6,9.6,74,0.00,-SN,,0.00,116.0,WeatherDisplay:10.37,2013-02-12 15:40:00,
2013-02-12 09:45:00,21.3,14.3,30.09,West,274,1.0,3.6,74,0.00,-SN,,0.00,186.0,WeatherDisplay:10.37,2013-02-12 15:45:00,
2013-02-12 09:50:00,21.4,14.4,30.09,WNW,287,3.0,6.0,74,0.00,-SN,,0.00,202.0,WeatherDisplay:10.37,2013-02-12 15:50:00,
2013-02-12 09:55:00,21.4,14.4,30.09,West,263,5.1,7.2,74,0.00,-SN,,0.00,181.0,WeatherDisplay:10.37,2013-02-12 15:55:00,
2013-02-12 10:00:00,21.6,14.6,30.09,WSW,240,0.5,2.4,74,0.00,-SN,,0.00,199.0,WeatherDisplay:10.37,2013-02-12 16:00:00,
2013-02-12 10:05:00,21.6,14.6,30.09,WNW,294,9.2,9.6,74,0.00,SCT,,0.00,206.0,WeatherDisplay:10.37,2013-02-12 16:05:00,
2013-02-12 10:10:00,21.4,14.4,30.09,West,275,7.4,8.4,74,0.00,SCT,,0.00,190.0,WeatherDisplay:10.37,2013-02-12 16:10:00,
2013-02-12 10:15:00,21.6,14.9,30.08,WSW,242,6.6,9.6,75,0.00,SCT,,0.00,218.0,WeatherDisplay:10.37,2013-02-12 16:15:00,
2013-02-12 10:20:00,21.6,14.9,30.08,West,271,7.2,10.4,75,0.00,SCT,,0.00,251.0,WeatherDisplay:10.37,2013-02-12 16:20:00,
2013-02-12 10:25:00,21.6,14.9,30.08,West,266,6.3,7.2,75,0.00,SCT,,0.00,239.0,WeatherDisplay:10.37,2013-02-12 16:25:00,
2013-02-12 10:30:00,21.8,15.1,30.07,NW,309,5.4,8.1,75,0.00,SCT,,0.00,267.0,WeatherDisplay:10.37,2013-02-12 16:30:00,
2013-02-12 10:35:00,21.8,15.1,30.07,WSW,250,7.1,8.4,75,0.00,SCT,,0.00,257.0,WeatherDisplay:10.37,2013-02-12 16:35:00,
2013-02-12 10:40:00,21.8,14.8,30.07,West,272,7.2,11.5,74,0.00,SCT,,0.00,274.0,WeatherDisplay:10.37,2013-02-12 16:40:00,
2013-02-12 10:45:00,21.9,15.2,30.07,West,273,4.3,8.1,75,0.00,BKN,,0.00,274.0,WeatherDisplay:10.37,2013-02-12 16:45:00,
2013-02-12 10:50:00,22.1,15.4,30.07,WNW,290,7.4,10.8,75,0.00,BKN,,0.00,262.0,WeatherDisplay:10.37,2013-02-12 16:50:00,
2013-02-12 10:55:00,22.2,15.5,30.07,WSW,257,6.2,7.2,75,0.00,BKN,,0.00,290.0,WeatherDisplay:10.37,2013-02-12 16:55:00,
2013-02-12 11:00:00,22.2,15.2,30.07,WSW,238,7.5,9.6,74,0.00,BKN,,0.00,311.0,WeatherDisplay:10.37,2013-02-12 17:00:00,
2013-02-12 11:05:00,22.4,15.4,30.07,West,261,3.0,4.6,74,0.00,OVC,,0.00,323.0,WeatherDisplay:10.37,2013-02-12 17:05:00,
2013-02-12 11:10:00,22.7,15.7,30.07,WNW,284,5.8,7.2,74,0.00,OVC,,0.00,330.0,WeatherDisplay:10.37,2013-02-12 17:10:00,
2013-02-12 11:15:00,22.9,15.8,30.06,WSW,248,3.0,4.8,74,0.00,OVC,,0.00,301.0,WeatherDisplay:10.37,2013-02-12 17:15:00,
2013-02-12 11:20:00,22.9,15.8,30.06,WSW,257,2.4,4.8,74,0.00,BKN,,0.00,336.0,WeatherDisplay:10.37,2013-02-12 17:20:00,
2013-02-12 11:25:00,22.9,15.8,30.06,WNW,293,2.8,8.1,74,0.00,BKN,,0.00,362.0,WeatherDisplay:10.37,2013-02-12 17:25:00,
2013-02-12 11:30:00,23.0,15.6,30.06,West,274,7.5,9.6,73,0.00,BKN,,0.00,364.0,WeatherDisplay:10.37,2013-02-12 17:30:00,
2013-02-12 11:35:00,23.2,16.1,30.06,SSW,211,2.6,6.0,74,0.00,BKN,,0.00,352.0,WeatherDisplay:10.37,2013-02-12 17:35:00,
2013-02-12 11:40:00,23.2,15.8,30.06,West,267,4.6,8.1,73,0.00,BKN,,0.00,315.0,WeatherDisplay:10.37,2013-02-12 17:40:00,
2013-02-12 11:45:00,23.2,16.1,30.05,SW,215,4.8,7.2,74,0.00,SCT,,0.00,353.0,WeatherDisplay:10.37,2013-02-12 17:45:00,
2013-02-12 11:50:00,23.3,16.2,30.05,WSW,243,5.0,7.2,74,0.00,SCT,,0.00,394.0,WeatherDisplay:10.37,2013-02-12 17:50:00,
2013-02-12 11:55:00,23.5,16.4,30.05,SW,216,6.0,7.2,74,0.00,SCT,,0.00,359.0,WeatherDisplay:10.37,2013-02-12 17:55:00,
2013-02-12 12:00:00,23.6,16.5,30.04,WSW,256,6.3,7.2,74,0.00,SCT,,0.00,367.0,WeatherDisplay:10.37,2013-02-12 18:00:00,
2013-02-12 12:05:00,23.8,16.7,30.04,West,261,4.8,6.0,74,0.00,SCT,,0.00,185.0,WeatherDisplay:10.37,2013-02-12 18:05:00,
2013-02-12 12:10:00,23.8,16.7,30.04,SW,218,3.2,5.8,74,0.00,SCT,,0.00,299.0,WeatherDisplay:10.37,2013-02-12 18:10:00,
2013-02-12 12:15:00,24.1,16.7,30.04,WSW,257,1.6,4.8,73,0.00,BKN,,0.00,288.0,WeatherDisplay:10.37,2013-02-12 18:15:00,
2013-02-12 12:20:00,24.4,17.3,30.04,West,263,7.1,7.2,74,0.00,BKN,,0.00,396.0,WeatherDisplay:10.37,2013-02-12 18:20:00,
2013-02-12 12:25:00,24.7,17.3,30.04,WNW,291,6.0,8.4,73,0.00,BKN,,0.00,512.0,WeatherDisplay:10.37,2013-02-12 18:25:00,
2013-02-12 12:30:00,24.8,17.4,30.03,SW,218,6.2,7.2,73,0.00,BKN,,0.00,475.0,WeatherDisplay:10.37,2013-02-12 18:30:00,
2013-02-12 12:35:00,25.1,17.3,30.03,SW,225,3.5,6.0,72,0.00,BKN,,0.00,362.0,WeatherDisplay:10.37,2013-02-12 18:35:00,
2013-02-12 12:40:00,25.1,17.3,30.03,WSW,249,4.7,6.0,72,0.00,BKN,,0.00,411.0,WeatherDisplay:10.37,2013-02-12 18:40:00,
2013-02-12 12:45:00,25.3,17.5,30.03,WSW,240,3.2,6.9,72,0.00,SCT,,0.00,422.0,WeatherDisplay:10.37,2013-02-12 18:45:00,
2013-02-12 12:50:00,25.7,17.9,30.03,SW,232,0.0,3.5,72,0.00,SCT,,0.00,446.0,WeatherDisplay:10.37,2013-02-12 18:50:00,
2013-02-12 12:55:00,26.0,18.2,30.03,WSW,256,4.8,8.4,72,0.00,SCT,,0.00,378.0,WeatherDisplay:10.37,2013-02-12 18:55:00,
2013-02-12 13:00:00,26.3,18.5,30.02,West,260,4.4,6.9,72,0.00,SCT,,0.00,489.0,WeatherDisplay:10.37,2013-02-12 19:00:00,
2013-02-12 13:05:00,26.3,18.5,30.02,West,271,5.2,7.2,72,0.00,CLR,,0.00,694.0,WeatherDisplay:10.37,2013-02-12 19:05:00,
2013-02-12 13:10:00,26.9,18.4,30.02,WNW,282,5.0,6.0,70,0.00,CLR,,0.00,705.0,WeatherDisplay:10.37,2013-02-12 19:10:00,
2013-02-12 13:15:00,26.9,18.4,30.01,SSW,211,4.3,6.9,70,0.00,CLR,,0.00,636.0,WeatherDisplay:10.37,2013-02-12 19:15:00,
2013-02-12 13:20:00,26.9,18.4,30.01,WSW,255,4.4,6.0,70,0.00,CLR,,0.00,596.0,WeatherDisplay:10.37,2013-02-12 19:20:00,
2013-02-12 13:25:00,27.5,18.7,30.01,SSW,207,6.7,10.8,69,0.00,CLR,,0.00,476.0,WeatherDisplay:10.37,2013-02-12 19:25:00,
2013-02-12 13:30:00,27.0,18.2,30.01,SSW,196,8.2,9.6,69,0.00,CLR,,0.00,582.0,WeatherDisplay:10.37,2013-02-12 19:30:00,
2013-02-12 13:35:00,27.6,19.1,30.01,SSW,206,7.7,9.6,70,0.00,CLR,,0.00,596.0,WeatherDisplay:10.37,2013-02-12 19:35:00,
2013-02-12 13:40:00,27.6,19.1,30.01,SSW,208,6.0,7.2,70,0.00,CLR,,0.00,575.0,WeatherDisplay:10.37,2013-02-12 19:40:00,
2013-02-12 13:45:00,27.8,18.9,30.01,SSE,168,9.1,12.0,69,0.00,CLR,,0.00,563.0,WeatherDisplay:10.37,2013-02-12 19:45:00,
2013-02-12 13:50:00,27.9,19.4,30.01,SSW,209,6.2,8.1,70,0.00,CLR,,0.00,223.0,WeatherDisplay:10.37,2013-02-12 19:50:00,
2013-02-12 13:55:00,27.6,18.8,30.01,SSW,212,9.8,10.8,69,0.00,CLR,,0.00,512.0,WeatherDisplay:10.37,2013-02-12 19:55:00,
2013-02-12 14:00:00,28.1,19.2,30.01,South,186,5.3,7.2,69,0.00,CLR,,0.00,499.0,WeatherDisplay:10.37,2013-02-12 20:00:00,
2013-02-12 14:05:00,28.7,19.5,30.01,SW,229,9.4,13.2,68,0.00,CLR,,0.00,441.0,WeatherDisplay:10.37,2013-02-12 20:05:00,
2013-02-12 14:10:00,28.5,19.3,30.01,SSW,209,9.7,10.8,68,0.00,CLR,,0.00,478.0,WeatherDisplay:10.37,2013-02-12 20:10:00,
2013-02-12 14:15:00,28.7,19.5,30.00,SW,233,9.7,12.0,68,0.00,CLR,,0.00,473.0,WeatherDisplay:10.37,2013-02-12 20:15:00,
2013-02-12 14:20:00,29.1,19.5,30.00,SSW,205,10.8,12.0,67,0.00,CLR,,0.00,450.0,WeatherDisplay:10.37,2013-02-12 20:20:00,
2013-02-12 14:25:00,29.3,20.0,30.00,SSW,194,6.1,9.2,68,0.00,CLR,,0.00,448.0,WeatherDisplay:10.37,2013-02-12 20:25:00,
2013-02-12 14:30:00,29.1,19.8,30.00,South,170,7.3,10.4,68,0.00,CLR,,0.00,441.0,WeatherDisplay:10.37,2013-02-12 20:30:00,
2013-02-12 14:35:00,29.3,20.4,30.00,SSW,202,7.1,9.6,69,0.00,CLR,,0.00,429.0,WeatherDisplay:10.37,2013-02-12 20:35:00,
2013-02-12 14:40:00,29.7,20.1,30.00,SW,216,8.4,9.6,67,0.00,CLR,,0.00,415.0,WeatherDisplay:10.37,2013-02-12 20:40:00,
2013-02-12 14:45:00,30.3,20.3,30.00,SW,216,5.2,7.2,66,0.00,CLR,,0.00,404.0,WeatherDisplay:10.37,2013-02-12 20:45:00,
2013-02-12 14:50:00,30.3,20.3,30.00,SSW,198,7.8,9.6,66,0.00,CLR,,0.00,392.0,WeatherDisplay:10.37,2013-02-12 20:50:00,
2013-02-12 14:55:00,30.4,20.7,30.00,SSW,212,9.6,11.5,67,0.00,CLR,,0.00,381.0,WeatherDisplay:10.37,2013-02-12 20:55:00,
2013-02-12 15:00:00,30.4,20.0,29.99,SW,235,6.7,9.6,65,0.00,CLR,,0.00,367.0,WeatherDisplay:10.37,2013-02-12 21:00:00,
2013-02-12 15:05:00,30.7,20.3,29.99,SSW,209,9.9,13.2,65,0.00,CLR,,0.00,357.0,WeatherDisplay:10.37,2013-02-12 21:05:00,
2013-02-12 15:10:00,31.2,20.8,29.99,SW,217,7.5,8.4,65,0.00,CLR,,0.00,348.0,WeatherDisplay:10.37,2013-02-12 21:10:00,
2013-02-12 15:15:00,31.5,20.7,29.99,SW,232,4.1,6.0,64,0.00,CLR,,0.00,329.0,WeatherDisplay:10.37,2013-02-12 21:15:00,
2013-02-12 15:20:00,31.5,20.7,29.99,SW,215,10.6,12.0,64,0.00,CLR,,0.00,318.0,WeatherDisplay:10.37,2013-02-12 21:20:00,
2013-02-12 15:25:00,31.5,20.7,29.99,SW,229,6.9,10.4,64,0.00,CLR,,0.00,308.0,WeatherDisplay:10.37,2013-02-12 21:25:00,
2013-02-12 15:30:00,31.5,21.1,29.98,SW,232,10.0,10.8,65,0.00,CLR,,0.00,301.0,WeatherDisplay:10.37,2013-02-12 21:30:00,
2013-02-12 15:35:00,31.8,21.0,29.98,SW,221,6.0,7.2,64,0.00,CLR,,0.00,287.0,WeatherDisplay:10.37,2013-02-12 21:35:00,
2013-02-12 15:40:00,32.1,21.3,29.98,SW,228,8.2,9.6,64,0.00,CLR,,0.00,274.0,WeatherDisplay:10.37,2013-02-12 21:40:00,
2013-02-12 15:45:00,31.9,21.1,29.98,SSW,199,8.6,12.0,64,0.00,CLR,,0.00,258.0,WeatherDisplay:10.37,2013-02-12 21:45:00,
2013-02-12 15:50:00,31.9,21.1,29.98,SW,228,10.5,12.0,64,0.00,CLR,,0.00,244.0,WeatherDisplay:10.37,2013-02-12 21:50:00,
2013-02-12 15:55:00,32.1,21.7,29.98,South,181,10.9,15.6,65,0.00,CLR,,0.00,230.0,WeatherDisplay:10.37,2013-02-12 21:55:00,
2013-02-12 16:00:00,31.9,21.1,29.98,South,190,8.2,10.8,64,0.00,CLR,,0.00,207.0,WeatherDisplay:10.37,2013-02-12 22:00:00,
2013-02-12 16:05:00,31.9,21.5,29.98,South,186,9.8,13.2,65,0.00,CLR,,0.00,125.0,WeatherDisplay:10.37,2013-02-12 22:05:00,
2013-02-12 16:10:00,31.8,21.4,29.98,SSW,198,8.3,8.4,65,0.00,CLR,,0.00,123.0,WeatherDisplay:10.37,2013-02-12 22:10:00,
2013-02-12 16:15:00,31.9,21.5,29.96,SSW,209,5.9,7.2,65,0.00,CLR,,0.00,116.0,WeatherDisplay:10.37,2013-02-12 22:15:00,
2013-02-12 16:20:00,32.1,21.7,29.96,South,181,5.7,9.2,65,0.00,CLR,,0.00,98.0,WeatherDisplay:10.37,2013-02-12 22:20:00,
2013-02-12 16:25:00,31.8,21.4,29.96,SW,215,7.8,10.8,65,0.00,CLR,,0.00,69.0,WeatherDisplay:10.37,2013-02-12 22:25:00,
2013-02-12 16:30:00,31.8,21.7,29.96,SW,215,7.1,10.8,66,0.00,CLR,,0.00,63.0,WeatherDisplay:10.37,2013-02-12 22:30:00,
2013-02-12 16:35:00,31.8,21.7,29.96,South,187,6.5,8.4,66,0.00,CLR,,0.00,62.0,WeatherDisplay:10.37,2013-02-12 22:35:00,
2013-02-12 16:40:00,31.6,21.5,29.96,SW,217,8.8,10.4,66,0.00,CLR,,0.00,62.0,WeatherDisplay:10.37,2013-02-12 22:40:00,
2013-02-12 16:45:00,31.6,21.5,29.95,SSW,200,5.2,8.4,66,0.00,CLR,,0.00,51.0,WeatherDisplay:10.37,2013-02-12 22:45:00,
2013-02-12 16:50:00,31.8,21.7,29.95,SW,224,6.0,7.2,66,0.00,CLR,,0.00,42.0,WeatherDisplay:10.37,2013-02-12 22:50:00,
2013-02-12 16:55:00,31.6,21.5,29.95,SSW,205,5.9,8.4,66,0.00,CLR,,0.00,33.0,WeatherDisplay:10.37,2013-02-12 22:55:00,
2013-02-12 17:00:00,31.5,21.4,29.95,SSW,201,6.9,8.4,66,0.00,CLR,,0.00,26.0,WeatherDisplay:10.37,2013-02-12 23:00:00,
2013-02-12 17:05:00,31.3,21.3,29.95,SSW,205,7.3,8.4,66,0.00,CLR,,0.00,21.0,WeatherDisplay:10.37,2013-02-12 23:05:00,
2013-02-12 17:11:00,31.0,21.3,29.95,SSW,209,7.2,8.4,67,0.00,CLR,,0.00,16.0,WeatherDisplay:10.37,2013-02-12 23:11:00,
2013-02-12 17:16:00,30.9,21.2,29.95,SSW,207,3.9,5.8,67,0.00,CLR,,0.00,11.0,WeatherDisplay:10.37,2013-02-12 23:16:00,
2013-02-12 17:21:00,30.7,21.4,29.95,SSW,206,4.6,5.8,68,0.00,CLR,,0.00,9.0,WeatherDisplay:10.37,2013-02-12 23:21:00,
2013-02-12 17:26:00,30.6,21.3,29.95,SSW,206,2.7,3.6,68,0.00,CLR,,0.00,5.0,WeatherDisplay:10.37,2013-02-12 23:26:00,
2013-02-12 17:31:00,30.4,21.1,29.95,SSW,207,6.4,6.9,68,0.00,CLR,,0.00,0.0,WeatherDisplay:10.37,2013-02-12 23:31:00,
2013-02-12 17:36:00,30.4,21.1,29.95,SSW,209,3.2,5.8,68,0.00,CLR,,0.00,0.0,WeatherDisplay:10.37,2013-02-12 23:36:00,
2013-02-12 17:41:00,30.4,21.1,29.95,SW,215,3.0,3.6,68,0.00,CLR,,0.00,0.0,WeatherDisplay:10.37,2013-02-12 23:41:00,
2013-02-12 17:46:00,30.3,21.0,29.95,SSW,211,0.0,0.0,68,0.00,CLR,,0.00,0.0,WeatherDisplay:10.37,2013-02-12 23:46:00,
2013-02-12 17:51:00,30.3,21.0,29.95,SSW,203,2.1,3.6,68,0.00,CLR,,0.00,0.0,WeatherDisplay:10.37,2013-02-12 23:51:00,
2013-02-12 17:56:00,30.1,21.2,29.95,SSW,205,0.4,3.5,69,0.00,CLR,,0.00,0.0,WeatherDisplay:10.37,2013-02-12 23:56:00,
2013-02-12 18:01:00,30.0,21.1,29.95,SSW,197,0.0,0.0,69,0.00,CLR,,0.00,0.0,WeatherDisplay:10.37,2013-02-13 00:01:00,
2013-02-12 18:06:00,29.8,20.9,29.95,SSW,194,0.5,3.5,69,0.00,CLR,,0.00,0.0,WeatherDisplay:10.37,2013-02-13 00:06:00,
2013-02-12 18:11:00,29.7,20.8,29.95,SSW,192,1.9,3.6,69,0.00,CLR,,0.00,0.0,WeatherDisplay:10.37,2013-02-13 00:11:00,
2013-02-12 18:16:00,29.5,20.9,29.94,SSW,192,0.0,0.0,70,0.00,CLR,,0.00,0.0,WeatherDisplay:10.37,2013-02-13 00:16:00,
2013-02-12 18:21:00,29.5,20.9,29.94,South,185,2.1,4.8,70,0.00,CLR,,0.00,0.0,WeatherDisplay:10.37,2013-02-13 00:21:00,
2013-02-12 18:26:00,29.5,20.9,29.94,South,185,0.0,0.0,70,0.00,CLR,,0.00,0.0,WeatherDisplay:10.37,2013-02-13 00:26:00,
2013-02-12 18:31:00,29.4,20.8,29.94,South,185,0.9,4.8,70,0.00,CLR,,0.00,0.0,WeatherDisplay:10.37,2013-02-13 00:31:00,
2013-02-12 18:36:00,29.3,20.7,29.94,South,185,0.0,0.0,70,0.00,CLR,,0.00,0.0,WeatherDisplay:10.37,2013-02-13 00:36:00,
2013-02-12 18:41:00,29.1,20.5,29.94,South,185,0.3,3.6,70,0.00,CLR,,0.00,0.0,WeatherDisplay:10.37,2013-02-13 00:41:00,
2013-02-12 18:46:00,29.0,20.8,29.94,South,185,2.1,3.6,71,0.00,CLR,,0.00,0.0,WeatherDisplay:10.37,2013-02-13 00:46:00,
2013-02-12 18:51:00,28.8,20.6,29.94,South,185,0.0,0.0,71,0.00,CLR,,0.00,0.0,WeatherDisplay:10.37,2013-02-13 00:51:00,
2013-02-12 18:56:00,28.7,20.5,29.94,South,185,0.0,1.1,71,0.00,CLR,,0.00,0.0,WeatherDisplay:10.37,2013-02-13 00:56:00,
2013-02-12 19:01:00,28.4,20.5,29.94,South,185,0.2,3.6,72,0.00,CLR,,0.00,0.0,WeatherDisplay:10.37,2013-02-13 01:01:00,
2013-02-12 19:06:00,28.4,20.5,29.94,South,185,2.2,3.6,72,0.00,CLR,,0.00,0.0,WeatherDisplay:10.37,2013-02-13 01:06:00,
2013-02-12 19:11:00,28.4,20.5,29.94,South,185,0.9,3.5,72,0.00,CLR,,0.00,0.0,WeatherDisplay:10.37,2013-02-13 01:11:00,
2013-02-12 19:16:00,28.2,20.3,29.93,South,185,3.1,3.6,72,0.00,CLR,,0.00,0.0,WeatherDisplay:10.37,2013-02-13 01:16:00,
2013-02-12 19:21:00,27.9,20.4,29.93,South,185,0.3,2.4,73,0.00,CLR,,0.00,0.0,WeatherDisplay:10.37,2013-02-13 01:21:00,
2013-02-12 19:26:00,27.8,20.3,29.93,South,185,1.6,3.6,73,0.00,CLR,,0.00,0.0,WeatherDisplay:10.37,2013-02-13 01:26:00,
2013-02-12 19:31:00,27.6,20.4,29.93,South,185,3.1,4.8,74,0.00,CLR,,0.00,0.0,WeatherDisplay:10.37,2013-02-13 01:31:00,
2013-02-12 19:36:00,27.6,20.4,29.93,South,185,2.9,4.8,74,0.00,CLR,,0.00,0.0,WeatherDisplay:10.37,2013-02-13 01:36:00,
2013-02-12 19:41:00,27.5,20.3,29.93,South,185,3.0,4.6,74,0.00,CLR,,0.00,0.0,WeatherDisplay:10.37,2013-02-13 01:41:00,
2013-02-12 19:46:00,27.5,20.3,29.93,South,175,1.6,4.6,74,0.00,CLR,,0.00,0.0,WeatherDisplay:10.37,2013-02-13 01:46:00,
2013-02-12 19:51:00,27.5,20.3,29.93,South,187,1.4,3.6,74,0.00,CLR,,0.00,0.0,WeatherDisplay:10.37,2013-02-13 01:51:00,
2013-02-12 19:56:00,27.3,20.1,29.93,South,171,4.3,4.8,74,0.00,CLR,,0.00,0.0,WeatherDisplay:10.37,2013-02-13 01:56:00,
2013-02-12 20:01:00,27.5,20.3,29.92,South,184,3.6,6.0,74,0.00,CLR,,0.00,0.0,WeatherDisplay:10.37,2013-02-13 02:01:00,
2013-02-12 20:06:00,27.3,20.4,29.92,South,185,0.5,2.4,75,0.00,CLR,,0.00,0.0,WeatherDisplay:10.37,2013-02-13 02:06:00,
2013-02-12 20:11:00,27.2,20.3,29.92,SSW,192,2.3,5.8,75,0.00,CLR,,0.00,0.0,WeatherDisplay:10.37,2013-02-13 02:11:00,
2013-02-12 20:16:00,27.0,20.1,29.92,South,176,3.4,7.2,75,0.00,CLR,,0.00,0.0,WeatherDisplay:10.37,2013-02-13 02:16:00,
2013-02-12 20:21:00,26.9,20.3,29.92,South,178,5.0,6.0,76,0.00,CLR,,0.00,0.0,WeatherDisplay:10.37,2013-02-13 02:21:00,
2013-02-12 20:26:00,26.9,20.3,29.92,South,182,3.8,6.0,76,0.00,CLR,,0.00,0.0,WeatherDisplay:10.37,2013-02-13 02:26:00,
2013-02-12 20:31:00,26.7,20.5,29.91,South,182,0.5,2.3,77,0.00,CLR,,0.00,0.0,WeatherDisplay:10.37,2013-02-13 02:31:00,
2013-02-12 20:36:00,26.7,20.5,29.91,South,182,0.0,0.0,77,0.00,CLR,,0.00,0.0,WeatherDisplay:10.37,2013-02-13 02:36:00,
2013-02-12 20:41:00,26.7,20.5,29.91,South,182,0.0,0.0,77,0.00,CLR,,0.00,0.0,WeatherDisplay:10.37,2013-02-13 02:41:00,
2013-02-12 20:46:00,26.6,20.4,29.91,South,182,0.0,0.0,77,0.00,CLR,,0.00,0.0,WeatherDisplay:10.37,2013-02-13 02:46:00,
2013-02-12 20:51:00,26.6,20.7,29.91,South,182,1.6,2.4,78,0.00,CLR,,0.00,0.0,WeatherDisplay:10.37,2013-02-13 02:51:00,
2013-02-12 20:56:00,26.4,20.5,29.91,South,182,0.0,0.0,78,0.00,CLR,,0.00,0.0,WeatherDisplay:10.37,2013-02-13 02:56:00,
2013-02-12 21:01:00,26.4,20.5,29.91,South,182,4.2,4.2,78,0.00,CLR,,0.00,0.0,WeatherDisplay:10.37,2013-02-13 03:01:00,
2013-02-12 21:06:00,26.4,20.8,29.91,South,185,0.0,0.0,79,0.00,CLR,,0.00,0.0,WeatherDisplay:10.37,2013-02-13 03:06:00,
2013-02-12 21:11:00,26.4,20.8,29.91,South,185,0.4,3.5,79,0.00,CLR,,0.00,0.0,WeatherDisplay:10.37,2013-02-13 03:11:00,
2013-02-12 21:16:00,26.4,20.8,29.90,South,185,1.4,3.6,79,0.00,CLR,,0.00,0.0,WeatherDisplay:10.37,2013-02-13 03:16:00,
2013-02-12 21:21:00,26.6,21.0,29.90,South,171,3.3,6.0,79,0.00,CLR,,0.00,0.0,WeatherDisplay:10.37,2013-02-13 03:21:00,
2013-02-12 21:26:00,26.6,21.0,29.90,South,171,0.2,1.2,79,0.00,CLR,,0.00,0.0,WeatherDisplay:10.37,2013-02-13 03:26:00,
2013-02-12 21:31:00,26.6,21.0,29.90,SSW,210,1.9,4.8,79,0.00,CLR,,0.00,0.0,WeatherDisplay:10.37,2013-02-13 03:31:00,
2013-02-12 21:36:00,26.6,21.0,29.90,SSW,210,1.8,3.6,79,0.00,CLR,,0.00,0.0,WeatherDisplay:10.37,2013-02-13 03:36:00,
2013-02-12 21:41:00,26.4,20.8,29.90,SSW,210,0.0,0.0,79,0.00,CLR,,0.00,0.0,WeatherDisplay:10.37,2013-02-13 03:41:00,
2013-02-12 21:46:00,26.4,20.8,29.89,SSW,210,0.0,1.1,79,0.00,CLR,,0.00,0.0,WeatherDisplay:10.37,2013-02-13 03:46:00,
2013-02-12 21:51:00,26.1,20.5,29.89,SSW,210,0.0,0.0,79,0.00,CLR,,0.00,0.0,WeatherDisplay:10.37,2013-02-13 03:51:00,
2013-02-12 21:56:00,26.1,20.8,29.89,SSW,210,0.7,2.4,80,0.00,CLR,,0.00,0.0,WeatherDisplay:10.37,2013-02-13 03:56:00,
2013-02-12 22:01:00,25.8,20.5,29.88,SSW,210,0.0,0.0,80,0.00,CLR,,0.00,0.0,WeatherDisplay:10.37,2013-02-13 04:01:00,
2013-02-12 22:06:00,25.8,20.5,29.88,SSW,210,0.0,0.0,80,0.00,CLR,,0.00,0.0,WeatherDisplay:10.37,2013-02-13 04:06:00,
2013-02-12 22:11:00,25.8,20.5,29.88,SSW,210,0.0,0.0,80,0.00,CLR,,0.00,0.0,WeatherDisplay:10.37,2013-02-13 04:11:00,
2013-02-12 22:16:00,26.0,21.0,29.88,SSW,210,0.0,0.0,81,0.00,CLR,,0.00,0.0,WeatherDisplay:10.37,2013-02-13 04:16:00,
2013-02-12 22:21:00,26.0,21.0,29.88,SSW,210,0.0,1.1,81,0.00,CLR,,0.00,0.0,WeatherDisplay:10.37,2013-02-13 04:21:00,
2013-02-12 22:26:00,26.0,21.0,29.88,SSW,210,3.1,4.8,81,0.00,CLR,,0.00,0.0,WeatherDisplay:10.37,2013-02-13 04:26:00,
2013-02-12 22:31:00,26.1,21.1,29.87,SSW,195,2.8,3.6,81,0.00,CLR,,0.00,0.0,WeatherDisplay:10.37,2013-02-13 04:31:00,
2013-02-12 22:36:00,26.1,21.1,29.87,SW,225,4.6,7.2,81,0.00,CLR,,0.00,0.0,WeatherDisplay:10.37,2013-02-13 04:36:00,
2013-02-12 22:41:00,26.1,21.1,29.87,SSW,202,4.9,6.0,81,0.00,CLR,,0.00,0.0,WeatherDisplay:10.37,2013-02-13 04:41:00,
2013-02-12 22:46:00,26.1,21.1,29.87,SSW,203,6.2,7.2,81,0.00,CLR,,0.00,0.0,WeatherDisplay:10.37,2013-02-13 04:46:00,
2013-02-12 22:51:00,26.3,21.3,29.87,SSW,194,6.2,7.2,81,0.00,CLR,,0.00,0.0,WeatherDisplay:10.37,2013-02-13 04:51:00,
2013-02-12 22:56:00,26.3,21.3,29.87,SSW,206,7.9,8.4,81,0.00,CLR,,0.00,0.0,WeatherDisplay:10.37,2013-02-13 04:56:00,
2013-02-12 23:00:00,26.3,21.3,29.86,SSW,197,7.5,8.4,81,0.00,CLR,,0.00,0.0,WeatherDisplay:10.37,2013-02-13 05:00:00,
2013-02-12 23:01:00,26.1,21.4,29.86,SSW,208,5.2,6.9,82,0.00,CLR,,0.00,0.0,WeatherDisplay:10.37,2013-02-13 05:01:00,
2013-02-12 23:06:00,26.1,21.4,29.86,SSW,208,4.1,6.0,82,0.00,CLR,,0.00,0.0,WeatherDisplay:10.37,2013-02-13 05:06:00,
2013-02-12 23:11:00,26.0,21.3,29.86,SSW,200,4.5,4.8,82,0.00,CLR,,0.00,0.0,WeatherDisplay:10.37,2013-02-13 05:11:00,
2013-02-12 23:16:00,25.8,21.1,29.85,SSW,204,6.1,6.1,82,0.00,CLR,,0.00,0.0,WeatherDisplay:10.37,2013-02-13 05:16:00,
2013-02-12 23:21:00,25.8,21.1,29.85,SSW,213,6.1,7.2,82,0.00,CLR,,0.00,0.0,WeatherDisplay:10.37,2013-02-13 05:21:00,
2013-02-12 23:26:00,25.7,21.3,29.85,SSW,194,4.4,4.8,83,0.00,CLR,,0.00,0.0,WeatherDisplay:10.37,2013-02-13 05:26:00,
2013-02-12 23:31:00,25.7,21.3,29.85,SSW,207,5.7,6.0,83,0.00,CLR,,0.00,0.0,WeatherDisplay:10.37,2013-02-13 05:31:00,
2013-02-12 23:36:00,25.8,21.3,29.85,SSW,207,6.4,6.4,83,0.00,CLR,,0.00,0.0,WeatherDisplay:10.37,2013-02-13 05:36:00,
2013-02-12 23:41:00,25.7,21.5,29.85,SSW,202,5.6,7.2,84,0.00,CLR,,0.00,0.0,WeatherDisplay:10.37,2013-02-13 05:41:00,
2013-02-12 23:46:00,25.7,21.5,29.85,SSW,207,4.6,6.0,84,0.00,CLR,,0.00,0.0,WeatherDisplay:10.37,2013-02-13 05:46:00,
2013-02-12 23:51:00,25.7,21.5,29.85,SSW,207,0.0,2.3,84,0.00,CLR,,0.00,0.0,WeatherDisplay:10.37,2013-02-13 05:51:00,
2013-02-12 23:56:00,25.7,21.5,29.85,SSW,207,0.0,0.0,84,0.00,CLR,,0.00,0.0,WeatherDisplay:10.37,2013-02-13 05:56:00,